Time;durP1;ratioP1;P1;durP2;ratioP2;P2;SDS_P1;SDS_P2;PMS_P1;PMS_P2;Temp;Humidity;BMP_temperature;BMP_pressure;BME280_temperature;BME280_humidity;BME280_pressure;Samples;Min_cycle;Max_cycle;Signal;HPM_P1;HPM_P2
2021/07/25 12:06:23;;;;;;;6.57;5.97;;;;;;;;;;5365084;23;20502;-73
2021/07/25 12:09:05;;;;;;;6.63;6.00;;;;;;;;;;4845452;29;20444;-75
2021/07/25 12:11:31;;;;;;;6.63;5.80;;;;;;;;;;4855146;29;20798;-73
2021/07/25 12:13:57;;;;;;;5.73;5.10;;;;;;;;;;4879648;29;20431;-76
2021/07/25 12:16:23;;;;;;;6.83;6.10;;;;;;;;;;4862793;29;20706;-75
2021/07/25 12:18:49;;;;;;;6.03;5.53;;;;;;;;;;4861883;29;20466;-76
2021/07/25 12:21:32;;;;;;;6.20;5.33;;;;;;;;;;4878591;29;20478;-75
2021/07/25 12:23:58;;;;;;;6.13;5.60;;;;;;;;;;4863183;29;20510;-76
2021/07/25 12:26:39;;;;;;;6.83;6.23;;;;;;;;;;4879486;29;20441;-74
2021/07/25 12:29:24;;;;;;;6.80;6.10;;;;;;;;;;4879385;29;20936;-71
2021/07/25 12:31:50;;;;;;;6.80;6.20;;;;;;;;;;4879239;29;20771;-76
2021/07/25 12:34:22;;;;;;;6.43;5.77;;;;;;;;;;4862753;29;20438;-79
2021/07/25 12:36:48;;;;;;;8.00;5.83;;;;;;;;;;4878571;29;20585;-79
2021/07/25 12:39:18;;;;;;;7.47;6.77;;;;;;;;;;4879233;29;20531;-78
2021/07/25 12:41:44;;;;;;;7.23;5.83;;;;;;;;;;4879667;29;20438;-74
2021/07/25 12:44:10;;;;;;;6.83;6.07;;;;;;;;;;4863782;29;20435;-73
2021/07/25 12:46:36;;;;;;;7.93;5.90;;;;;;;;;;4879038;29;20431;-78
2021/07/25 12:49:05;;;;;;;7.63;5.80;;;;;;;;;;4862468;29;20929;-80
2021/07/25 12:51:43;;;;;;;6.00;5.40;;;;;;;;;;4878286;29;20475;-75
2021/07/25 12:54:12;;;;;;;6.23;5.73;;;;;;;;;;4879037;29;20487;-77
2021/07/25 12:56:38;;;;;;;7.50;5.80;;;;;;;;;;4863023;29;21098;-76
2021/07/25 12:59:06;;;;;;;10.33;5.90;;;;;;;;;;4860533;29;20460;-75
2021/07/25 13:03:59;;;;;;;7.40;6.70;;;;;;;;;;4860644;29;20481;-76
2021/07/25 13:06:32;;;;;;;6.30;5.63;;;;;;;;;;4859444;29;20464;-77
2021/07/25 13:09:02;;;;;;;7.80;5.73;;;;;;;;;;4860372;29;20440;-77
2021/07/25 13:11:29;;;;;;;6.20;5.60;;;;;;;;;;4860280;29;20432;-77
2021/07/25 13:14:01;;;;;;;7.93;5.43;;;;;;;;;;4860253;29;20920;-76
2021/07/25 13:16:27;;;;;;;6.50;5.90;;;;;;;;;;4860343;29;20817;-76
2021/07/25 13:18:57;;;;;;;9.07;6.13;;;;;;;;;;4860336;29;20492;-77
2021/07/25 13:21:23;;;;;;;9.73;6.57;;;;;;;;;;4859732;29;20881;-76
2021/07/25 13:23:49;;;;;;;6.43;5.70;;;;;;;;;;4860362;29;20420;-74
2021/07/25 13:26:15;;;;;;;6.40;5.80;;;;;;;;;;4860221;29;20432;-76
2021/07/25 13:28:42;;;;;;;6.50;5.77;;;;;;;;;;4860670;29;20794;-76
2021/07/25 13:31:08;;;;;;;6.30;5.70;;;;;;;;;;4862700;29;20463;-76
2021/07/25 13:33:34;;;;;;;6.83;6.17;;;;;;;;;;4863814;29;20872;-75
2021/07/25 13:36:01;;;;;;;7.10;6.43;;;;;;;;;;4863498;29;20478;-75
2021/07/25 13:38:27;;;;;;;8.07;6.63;;;;;;;;;;4863589;29;20420;-76
2021/07/25 13:40:54;;;;;;;7.03;6.43;;;;;;;;;;4863992;29;20427;-74
2021/07/25 13:43:20;;;;;;;7.17;6.43;;;;;;;;;;4863826;29;20907;-74
2021/07/25 13:45:53;;;;;;;6.87;6.20;;;;;;;;;;4863440;29;20475;-75
2021/07/25 13:48:20;;;;;;;6.57;5.97;;;;;;;;;;4863383;29;20459;-76
2021/07/25 13:50:46;;;;;;;7.03;6.20;;;;;;;;;;4863544;29;20443;-75
2021/07/25 13:53:12;;;;;;;6.63;5.80;;;;;;;;;;4862780;29;20430;-76
2021/07/25 13:55:38;;;;;;;6.80;6.20;;;;;;;;;;4863466;29;21011;-74
2021/07/25 13:58:05;;;;;;;6.80;6.10;;;;;;;;;;4863425;29;20579;-74
2021/07/25 14:00:31;;;;;;;7.37;6.27;;;;;;;;;;4863508;29;20514;-75
2021/07/25 14:03:02;;;;;;;6.80;6.20;;;;;;;;;;4850632;29;20534;-73
2021/07/25 14:05:30;;;;;;;9.60;7.57;;;;;;;;;;4878265;29;20430;-74
2021/07/25 14:07:56;;;;;;;6.27;5.67;;;;;;;;;;4877007;29;20486;-75
2021/07/25 14:10:22;;;;;;;6.97;6.30;;;;;;;;;;4878977;29;20445;-74
2021/07/25 14:12:48;;;;;;;6.73;6.13;;;;;;;;;;4879507;29;20450;-76
2021/07/25 14:15:14;;;;;;;8.70;7.33;;;;;;;;;;4881619;29;20481;-73
2021/07/25 14:17:40;;;;;;;5.93;5.43;;;;;;;;;;4881531;29;20431;-73
2021/07/25 14:20:07;;;;;;;6.10;5.50;;;;;;;;;;4900341;29;20578;-74
2021/07/25 14:22:33;;;;;;;10.00;7.70;;;;;;;;;;4899456;29;20794;-73
2021/07/25 14:24:59;;;;;;;5.03;4.63;;;;;;;;;;4900369;29;20421;-71
2021/07/25 14:27:25;;;;;;;5.27;4.87;;;;;;;;;;4900046;29;20912;-71
2021/07/25 14:29:51;;;;;;;5.47;4.90;;;;;;;;;;4900199;29;20418;-73
2021/07/25 14:32:17;;;;;;;5.70;5.20;;;;;;;;;;4899909;29;20526;-73
2021/07/25 14:34:43;;;;;;;5.00;4.60;;;;;;;;;;4882782;29;20432;-72
2021/07/25 14:37:09;;;;;;;6.50;5.30;;;;;;;;;;4899291;29;20473;-71
2021/07/25 14:39:35;;;;;;;7.00;6.40;;;;;;;;;;4877416;29;20431;-72
2021/07/25 14:42:01;;;;;;;5.43;5.00;;;;;;;;;;4877881;29;20485;-72
2021/07/25 14:44:27;;;;;;;5.83;5.43;;;;;;;;;;4878712;29;20459;-72
2021/07/25 14:46:53;;;;;;;5.30;4.80;;;;;;;;;;4878419;29;20650;-72
2021/07/25 14:49:19;;;;;;;5.90;5.40;;;;;;;;;;4878588;29;20439;-72
2021/07/25 14:51:45;;;;;;;6.37;5.80;;;;;;;;;;4877862;29;20503;-73
2021/07/25 14:54:11;;;;;;;6.80;6.20;;;;;;;;;;4878366;29;20435;-73
2021/07/25 14:56:37;;;;;;;5.67;5.17;;;;;;;;;;4877867;29;20482;-72
2021/07/25 14:59:07;;;;;;;5.60;5.10;;;;;;;;;;4878681;29;20453;-72
2021/07/25 15:01:33;;;;;;;4.80;4.40;;;;;;;;;;4877973;29;20955;-73
2021/07/25 15:03:59;;;;;;;5.93;5.43;;;;;;;;;;4878663;29;20446;-72
2021/07/25 15:06:25;;;;;;;4.57;4.17;;;;;;;;;;4876816;29;20438;-73
2021/07/25 15:08:51;;;;;;;5.77;5.03;;;;;;;;;;4878171;29;20431;-73
2021/07/25 15:11:17;;;;;;;4.30;3.90;;;;;;;;;;4878299;29;20794;-70
2021/07/25 15:13:46;;;;;;;4.70;3.80;;;;;;;;;;4877880;29;20439;-74
2021/07/25 15:16:12;;;;;;;3.97;3.60;;;;;;;;;;4880240;29;20915;-74
2021/07/25 15:18:38;;;;;;;3.40;3.10;;;;;;;;;;4880541;29;20476;-73
2021/07/25 15:21:04;;;;;;;5.30;3.40;;;;;;;;;;4879960;29;20784;-73
2021/07/25 15:23:30;;;;;;;3.80;3.50;;;;;;;;;;4875208;29;20434;-73
2021/07/25 15:25:56;;;;;;;4.93;3.53;;;;;;;;;;4861502;29;20908;-72
2021/07/25 15:28:22;;;;;;;3.47;3.17;;;;;;;;;;4861662;29;20428;-73
2021/07/25 15:30:50;;;;;;;2.97;2.77;;;;;;;;;;4861597;29;20516;-73
2021/07/25 15:33:19;;;;;;;2.97;2.73;;;;;;;;;;4861383;29;20436;-73
2021/07/25 15:35:45;;;;;;;4.30;3.40;;;;;;;;;;4861724;29;20479;-73
2021/07/25 15:38:11;;;;;;;2.73;2.53;;;;;;;;;;4860736;29;20448;-73
2021/07/25 15:40:37;;;;;;;3.90;2.70;;;;;;;;;;4861514;29;20423;-73
2021/07/25 15:43:03;;;;;;;4.60;2.47;;;;;;;;;;4861399;29;20467;-72
2021/07/25 15:45:29;;;;;;;2.80;2.33;;;;;;;;;;4863391;29;20451;-73
2021/07/25 15:47:55;;;;;;;2.50;2.30;;;;;;;;;;4868798;29;20427;-71
2021/07/25 15:50:21;;;;;;;2.87;2.57;;;;;;;;;;4879386;29;20423;-72
2021/07/25 15:52:47;;;;;;;4.10;2.97;;;;;;;;;;4863409;29;20510;-71
2021/07/25 15:55:13;;;;;;;2.90;2.70;;;;;;;;;;4860363;29;20471;-73
2021/07/25 15:57:39;;;;;;;2.77;2.57;;;;;;;;;;4860184;29;20467;-72
2021/07/25 16:00:06;;;;;;;2.40;2.20;;;;;;;;;;4860358;29;20934;-72
2021/07/25 16:02:32;;;;;;;3.53;3.17;;;;;;;;;;4859997;29;20428;-72
2021/07/25 16:04:58;;;;;;;3.03;2.33;;;;;;;;;;4863343;29;20443;-72
2021/07/25 16:07:24;;;;;;;4.10;2.53;;;;;;;;;;4872182;29;20876;-71
2021/07/25 16:09:50;;;;;;;3.33;2.97;;;;;;;;;;4878424;29;20452;-71
2021/07/25 16:12:16;;;;;;;3.10;2.80;;;;;;;;;;4878493;29;20472;-71
2021/07/25 16:14:42;;;;;;;2.60;2.40;;;;;;;;;;4877029;29;20471;-71
2021/07/25 16:17:08;;;;;;;2.77;2.53;;;;;;;;;;4877031;29;21167;-71
2021/07/25 16:19:34;;;;;;;2.50;2.30;;;;;;;;;;4872120;29;20463;-71
2021/07/25 16:22:01;;;;;;;2.53;2.33;;;;;;;;;;4871300;29;20546;-72
2021/07/25 16:24:27;;;;;;;2.03;1.90;;;;;;;;;;4876038;29;20483;-70
2021/07/25 16:26:53;;;;;;;2.40;1.73;;;;;;;;;;4871969;29;21013;-71
2021/07/25 16:29:19;;;;;;;3.17;2.70;;;;;;;;;;4875279;29;20945;-72
2021/07/25 16:31:45;;;;;;;4.07;2.70;;;;;;;;;;4875561;29;20462;-70
2021/07/25 16:34:11;;;;;;;3.37;3.17;;;;;;;;;;4875238;29;20916;-72
2021/07/25 16:36:37;;;;;;;3.30;2.43;;;;;;;;;;4858685;29;20502;-70
2021/07/25 16:39:02;;;;;;;2.40;2.20;;;;;;;;;;4877123;29;20446;-71
2021/07/25 16:41:28;;;;;;;2.60;2.40;;;;;;;;;;4877777;29;20469;-71
2021/07/25 16:43:54;;;;;;;2.67;2.47;;;;;;;;;;4877697;29;20783;-72
2021/07/25 16:46:23;;;;;;;3.77;2.40;;;;;;;;;;4877501;29;20775;-72
2021/07/25 16:48:50;;;;;;;2.33;2.23;;;;;;;;;;4877730;29;20434;-72
2021/07/25 16:51:16;;;;;;;2.70;2.40;;;;;;;;;;4874746;29;20462;-70
2021/07/25 16:53:42;;;;;;;3.70;2.30;;;;;;;;;;4877850;29;20441;-71
2021/07/25 16:56:08;;;;;;;4.20;2.40;;;;;;;;;;4867653;29;20498;-72
2021/07/25 16:58:34;;;;;;;2.87;2.57;;;;;;;;;;4877910;29;20442;-72
2021/07/25 17:01:04;;;;;;;4.70;2.63;;;;;;;;;;4878613;29;20455;-71
2021/07/25 17:03:30;;;;;;;3.20;2.87;;;;;;;;;;4866462;29;20438;-73
2021/07/25 17:06:00;;;;;;;2.90;2.60;;;;;;;;;;4865160;29;20858;-74
2021/07/25 17:08:26;;;;;;;4.70;4.30;;;;;;;;;;4865973;29;20542;-73
2021/07/25 17:10:52;;;;;;;4.17;3.20;;;;;;;;;;4866582;29;20427;-73
2021/07/25 17:13:18;;;;;;;3.47;2.60;;;;;;;;;;4866391;29;20427;-72
2021/07/25 17:15:44;;;;;;;3.17;2.87;;;;;;;;;;4866343;29;21016;-73
2021/07/25 17:18:10;;;;;;;3.03;2.80;;;;;;;;;;4869752;29;20465;-73
2021/07/25 17:20:37;;;;;;;3.33;3.03;;;;;;;;;;4884935;29;20457;-73
2021/07/25 17:23:03;;;;;;;2.83;2.60;;;;;;;;;;4884242;29;20790;-73
2021/07/25 17:25:29;;;;;;;3.37;2.60;;;;;;;;;;4885030;29;20430;-73
2021/07/25 17:27:55;;;;;;;3.10;2.80;;;;;;;;;;4885071;29;20442;-73
2021/07/25 17:30:21;;;;;;;4.87;3.20;;;;;;;;;;4885343;29;20430;-73
2021/07/25 17:32:47;;;;;;;4.53;3.80;;;;;;;;;;4884861;29;20594;-74
2021/07/25 17:35:13;;;;;;;3.53;3.07;;;;;;;;;;4871381;29;20970;-73
2021/07/25 17:37:39;;;;;;;3.37;3.07;;;;;;;;;;4848809;29;20443;-73
2021/07/25 17:40:09;;;;;;;3.07;2.80;;;;;;;;;;4866607;29;20528;-72
2021/07/25 17:42:35;;;;;;;3.10;2.83;;;;;;;;;;4866178;29;20945;-74
2021/07/25 17:45:02;;;;;;;2.80;2.53;;;;;;;;;;4866568;29;20427;-75
2021/07/25 17:47:28;;;;;;;3.27;2.97;;;;;;;;;;4849685;29;20432;-74
2021/07/25 17:49:54;;;;;;;2.53;2.33;;;;;;;;;;4866256;29;20438;-74
2021/07/25 17:52:20;;;;;;;4.63;3.37;;;;;;;;;;4865450;29;20774;-73
2021/07/25 17:54:46;;;;;;;4.73;3.03;;;;;;;;;;4849556;29;20491;-73
2021/07/25 17:57:12;;;;;;;3.77;2.80;;;;;;;;;;4865989;29;20479;-74
2021/07/25 17:59:38;;;;;;;5.37;3.53;;;;;;;;;;4866156;29;20424;-74
2021/07/25 18:02:05;;;;;;;3.30;3.00;;;;;;;;;;4848978;29;20443;-73
2021/07/25 18:04:32;;;;;;;5.30;2.80;;;;;;;;;;4866227;29;20452;-74
2021/07/25 18:06:58;;;;;;;3.80;3.37;;;;;;;;;;4865186;29;20487;-74
2021/07/25 18:09:25;;;;;;;3.73;3.20;;;;;;;;;;4865564;29;20755;-73
2021/07/25 18:11:52;;;;;;;3.77;3.47;;;;;;;;;;4865929;29;20434;-76
2021/07/25 18:14:18;;;;;;;3.23;2.93;;;;;;;;;;4866054;29;20424;-73
2021/07/25 18:16:44;;;;;;;3.13;2.70;;;;;;;;;;4864449;29;20552;-73
2021/07/25 18:19:10;;;;;;;4.70;3.57;;;;;;;;;;4862348;29;20459;-73
2021/07/25 18:21:38;;;;;;;3.33;3.03;;;;;;;;;;4875217;29;20529;-73
2021/07/25 18:24:05;;;;;;;3.30;3.00;;;;;;;;;;4881066;29;20427;-72
2021/07/25 18:26:31;;;;;;;3.30;3.00;;;;;;;;;;4881660;29;20859;-72
2021/07/25 18:28:57;;;;;;;3.70;3.40;;;;;;;;;;4881271;29;20498;-72
2021/07/25 18:31:24;;;;;;;3.40;3.10;;;;;;;;;;4881261;29;20907;-72
2021/07/25 18:33:50;;;;;;;5.83;3.40;;;;;;;;;;4881244;29;20427;-72
2021/07/25 18:36:16;;;;;;;3.67;3.37;;;;;;;;;;4864467;29;20487;-72
2021/07/25 18:38:42;;;;;;;4.20;3.80;;;;;;;;;;4879969;29;20439;-72
2021/07/25 18:41:08;;;;;;;3.90;3.20;;;;;;;;;;4880923;29;20446;-72
2021/07/25 18:43:35;;;;;;;4.10;3.57;;;;;;;;;;4876512;29;20431;-72
2021/07/25 18:46:11;;;;;;;5.63;5.13;;;;;;;;;;4881432;29;20435;-71
2021/07/25 18:48:37;;;;;;;4.20;3.87;;;;;;;;;;4880864;29;20422;-73
2021/07/25 18:51:04;;;;;;;4.00;3.63;;;;;;;;;;4881139;29;20424;-73
2021/07/25 18:53:30;;;;;;;4.43;3.60;;;;;;;;;;4880343;29;20442;-73
2021/07/25 18:55:56;;;;;;;4.30;3.90;;;;;;;;;;4880991;29;20630;-73
2021/07/25 18:58:22;;;;;;;3.83;3.50;;;;;;;;;;4881190;29;20427;-73
2021/07/25 19:00:51;;;;;;;4.40;3.50;;;;;;;;;;4880960;29;20438;-72
2021/07/25 19:03:18;;;;;;;5.30;3.50;;;;;;;;;;4880551;29;20439;-73
2021/07/25 19:05:44;;;;;;;4.30;3.87;;;;;;;;;;4880826;29;20514;-72
2021/07/25 19:08:10;;;;;;;4.27;3.87;;;;;;;;;;4879839;29;20474;-72
2021/07/25 19:10:36;;;;;;;4.07;3.67;;;;;;;;;;4867245;29;20455;-73
2021/07/25 19:13:03;;;;;;;3.80;3.40;;;;;;;;;;4862053;29;20420;-73
2021/07/25 19:15:29;;;;;;;4.43;4.03;;;;;;;;;;4862030;29;20526;-73
2021/07/25 19:17:56;;;;;;;6.90;4.10;;;;;;;;;;4861717;29;20432;-70
2021/07/25 19:20:22;;;;;;;4.17;3.77;;;;;;;;;;4861676;29;20928;-70
2021/07/25 19:22:51;;;;;;;3.80;3.40;;;;;;;;;;4863803;29;20466;-70
2021/07/25 19:25:18;;;;;;;9.83;6.50;;;;;;;;;;4869019;29;20451;-70
2021/07/25 19:27:44;;;;;;;4.57;4.10;;;;;;;;;;4863192;29;20455;-67
2021/07/25 19:30:10;;;;;;;4.27;3.50;;;;;;;;;;4879575;29;20487;-70
2021/07/25 19:32:36;;;;;;;3.77;3.40;;;;;;;;;;4872309;29;20496;-69
2021/07/25 19:35:02;;;;;;;4.63;4.13;;;;;;;;;;4860792;29;20898;-70
2021/07/25 19:37:28;;;;;;;4.10;3.80;;;;;;;;;;4860308;29;20440;-70
2021/07/25 19:39:54;;;;;;;5.53;3.67;;;;;;;;;;4860916;29;20440;-68
2021/07/25 19:42:20;;;;;;;3.70;2.90;;;;;;;;;;4860649;29;20528;-68
2021/07/25 19:44:46;;;;;;;3.60;3.30;;;;;;;;;;4860335;29;21049;-70
2021/07/25 19:47:12;;;;;;;4.57;4.13;;;;;;;;;;4860531;29;20459;-69
2021/07/25 19:49:38;;;;;;;4.60;4.20;;;;;;;;;;4860698;29;20447;-68
2021/07/25 19:52:06;;;;;;;4.23;3.70;;;;;;;;;;4860566;29;20965;-68
2021/07/25 19:54:32;;;;;;;4.40;3.77;;;;;;;;;;4859903;29;20813;-67
2021/07/25 19:56:58;;;;;;;4.20;3.80;;;;;;;;;;4860513;29;20476;-71
2021/07/25 19:59:24;;;;;;;4.40;3.90;;;;;;;;;;4860046;29;20428;-71
2021/07/25 20:01:50;;;;;;;4.07;3.67;;;;;;;;;;4860423;29;20439;-69
2021/07/25 20:04:16;;;;;;;5.47;4.23;;;;;;;;;;4860171;29;20424;-70
2021/07/25 20:06:42;;;;;;;9.77;8.03;;;;;;;;;;4875947;29;20483;-69
2021/07/25 20:09:08;;;;;;;5.13;4.70;;;;;;;;;;4878954;29;20438;-69
2021/07/25 20:11:35;;;;;;;4.40;3.97;;;;;;;;;;4879665;29;20435;-69
2021/07/25 20:14:01;;;;;;;6.13;4.60;;;;;;;;;;4879584;29;20782;-69
2021/07/25 20:16:27;;;;;;;9.27;4.90;;;;;;;;;;4879471;29;20478;-70
2021/07/25 20:18:53;;;;;;;7.70;4.97;;;;;;;;;;4879298;29;20441;-69
2021/07/25 20:21:20;;;;;;;6.00;4.90;;;;;;;;;;4879090;29;20412;-70
2021/07/25 20:23:46;;;;;;;4.40;4.00;;;;;;;;;;4878811;29;20526;-70
2021/07/25 20:26:12;;;;;;;8.47;5.27;;;;;;;;;;4869767;29;20448;-70
2021/07/25 20:28:39;;;;;;;5.00;4.00;;;;;;;;;;4860847;29;20432;-70
2021/07/25 20:31:05;;;;;;;4.60;4.17;;;;;;;;;;4860824;29;20435;-69
2021/07/25 20:33:31;;;;;;;8.63;4.53;;;;;;;;;;4860765;29;20428;-69
2021/07/25 20:35:57;;;;;;;4.73;4.27;;;;;;;;;;4861013;29;20818;-69
2021/07/25 20:38:23;;;;;;;4.07;3.67;;;;;;;;;;4860112;29;20450;-70
2021/07/25 20:40:50;;;;;;;5.40;4.40;;;;;;;;;;4860040;29;20424;-70
2021/07/25 20:43:16;;;;;;;4.00;3.60;;;;;;;;;;4860767;29;20428;-71
2021/07/25 20:45:43;;;;;;;5.13;4.30;;;;;;;;;;4860667;29;20527;-70
2021/07/25 20:48:10;;;;;;;6.10;5.50;;;;;;;;;;4860457;29;20432;-70
2021/07/25 20:50:36;;;;;;;4.43;4.10;;;;;;;;;;4863397;29;20434;-70
2021/07/25 20:53:02;;;;;;;4.47;3.90;;;;;;;;;;4861609;29;20435;-70
2021/07/25 20:55:28;;;;;;;4.80;4.10;;;;;;;;;;4879047;29;20474;-70
2021/07/25 20:57:56;;;;;;;4.80;4.20;;;;;;;;;;4879221;29;20431;-70
2021/07/25 21:00:22;;;;;;;5.23;4.83;;;;;;;;;;4879102;29;20798;-69
2021/07/25 21:02:48;;;;;;;5.00;4.50;;;;;;;;;;4878860;29;20423;-70
2021/07/25 21:05:14;;;;;;;6.47;4.93;;;;;;;;;;4878991;29;20454;-70
2021/07/25 21:07:40;;;;;;;5.13;4.63;;;;;;;;;;4878139;29;20501;-71
2021/07/25 21:10:07;;;;;;;5.00;4.50;;;;;;;;;;4879213;29;20431;-70
2021/07/25 21:12:34;;;;;;;5.30;4.77;;;;;;;;;;4878692;29;20415;-69
2021/07/25 21:15:00;;;;;;;4.40;3.87;;;;;;;;;;4878972;29;20423;-70
2021/07/25 21:17:30;;;;;;;5.90;5.30;;;;;;;;;;4878493;29;20486;-69
2021/07/25 21:19:56;;;;;;;6.07;4.87;;;;;;;;;;4878759;29;20419;-70
2021/07/25 21:22:22;;;;;;;4.80;4.17;;;;;;;;;;4878173;29;20465;-69
2021/07/25 21:24:48;;;;;;;5.03;4.53;;;;;;;;;;4878775;29;20531;-70
2021/07/25 21:27:14;;;;;;;4.90;3.60;;;;;;;;;;4879075;29;20434;-70
2021/07/25 21:29:40;;;;;;;4.47;4.07;;;;;;;;;;4878902;29;20932;-70
2021/07/25 21:32:06;;;;;;;4.70;4.10;;;;;;;;;;4878807;29;20432;-71
2021/07/25 21:34:32;;;;;;;5.30;4.53;;;;;;;;;;4878933;29;20833;-70
2021/07/25 21:36:58;;;;;;;4.70;4.30;;;;;;;;;;4878313;29;20589;-70
2021/07/25 21:39:24;;;;;;;5.47;4.97;;;;;;;;;;4859871;29;20455;-70
2021/07/25 21:41:50;;;;;;;4.63;4.23;;;;;;;;;;4843536;29;20450;-69
2021/07/25 21:44:20;;;;;;;4.27;3.83;;;;;;;;;;4860014;29;20431;-70
2021/07/25 21:46:46;;;;;;;5.03;3.60;;;;;;;;;;4860187;29;20432;-69
2021/07/25 21:49:12;;;;;;;4.20;3.70;;;;;;;;;;4859944;29;20474;-69
2021/07/25 21:51:38;;;;;;;8.13;5.13;;;;;;;;;;4845551;29;20464;-69
2021/07/25 21:54:04;;;;;;;4.27;3.87;;;;;;;;;;4862814;29;20522;-69
2021/07/25 21:56:31;;;;;;;5.40;4.83;;;;;;;;;;4863397;29;20479;-69
2021/07/25 21:58:57;;;;;;;7.50;4.87;;;;;;;;;;4863631;29;20424;-70
2021/07/25 22:01:30;;;;;;;4.57;4.13;;;;;;;;;;4863693;29;20797;-71
2021/07/25 22:06:31;;;;;;;5.70;4.67;;;;;;;;;;4863424;29;20567;-69
2021/07/25 22:08:57;;;;;;;5.30;4.60;;;;;;;;;;4862635;29;20431;-69
2021/07/25 22:11:23;;;;;;;6.93;5.30;;;;;;;;;;4863341;29;20446;-69
2021/07/25 22:13:49;;;;;;;6.40;4.90;;;;;;;;;;4863253;29;20519;-70
2021/07/25 22:16:15;;;;;;;5.80;4.40;;;;;;;;;;4863220;29;20484;-70
2021/07/25 22:18:42;;;;;;;6.33;4.33;;;;;;;;;;4862967;29;20428;-69
2021/07/25 22:21:08;;;;;;;6.10;4.70;;;;;;;;;;4846441;29;20451;-70
2021/07/25 22:23:35;;;;;;;5.13;4.63;;;;;;;;;;4862472;29;20868;-70
2021/07/25 22:26:01;;;;;;;4.40;4.00;;;;;;;;;;4863059;29;20475;-69
2021/07/25 22:28:27;;;;;;;4.70;4.30;;;;;;;;;;4862974;29;20495;-71
2021/07/25 22:30:53;;;;;;;5.50;5.00;;;;;;;;;;4863092;29;20478;-71
2021/07/25 22:33:19;;;;;;;6.10;5.50;;;;;;;;;;4862922;29;20913;-70
2021/07/25 22:35:46;;;;;;;4.90;4.50;;;;;;;;;;4846118;29;20848;-71
2021/07/25 22:38:12;;;;;;;5.10;4.57;;;;;;;;;;4862224;29;20444;-71
2021/07/25 22:40:38;;;;;;;4.80;4.37;;;;;;;;;;4862750;29;20757;-70
2021/07/25 22:43:04;;;;;;;4.90;4.50;;;;;;;;;;4862685;29;20520;-70
2021/07/25 22:45:30;;;;;;;4.17;3.77;;;;;;;;;;4862788;29;20431;-69
2021/07/25 22:47:56;;;;;;;4.90;4.33;;;;;;;;;;4862415;29;20430;-70
2021/07/25 22:50:22;;;;;;;5.47;4.87;;;;;;;;;;4862753;29;20428;-69
2021/07/25 22:52:57;;;;;;;4.90;4.40;;;;;;;;;;4862255;29;20728;-70
2021/07/25 22:55:24;;;;;;;5.30;4.80;;;;;;;;;;4862511;29;20455;-70
2021/07/25 22:57:50;;;;;;;5.57;5.10;;;;;;;;;;4862470;29;20496;-69
2021/07/25 23:00:16;;;;;;;4.97;4.47;;;;;;;;;;4862470;29;20754;-70
2021/07/25 23:02:45;;;;;;;5.40;5.00;;;;;;;;;;4861327;29;20435;-70
2021/07/25 23:05:11;;;;;;;5.43;4.93;;;;;;;;;;4862464;29;20423;-71
2021/07/25 23:07:38;;;;;;;5.63;5.03;;;;;;;;;;4861627;29;20488;-71
2021/07/25 23:10:04;;;;;;;5.43;4.93;;;;;;;;;;4862589;29;20735;-70
2021/07/25 23:12:30;;;;;;;7.07;4.90;;;;;;;;;;4862188;29;20951;-70
2021/07/25 23:14:56;;;;;;;6.23;5.63;;;;;;;;;;4845648;29;20436;-70
2021/07/25 23:17:23;;;;;;;4.60;4.13;;;;;;;;;;4861922;29;20657;-69
2021/07/25 23:19:49;;;;;;;4.80;4.30;;;;;;;;;;4862009;29;20548;-69
2021/07/25 23:22:14;;;;;;;5.30;4.80;;;;;;;;;;4861591;29;20467;-70
2021/07/25 23:24:40;;;;;;;5.17;4.60;;;;;;;;;;4861918;29;20459;-70
2021/07/25 23:27:06;;;;;;;5.60;4.73;;;;;;;;;;4861982;29;20443;-69
2021/07/25 23:29:32;;;;;;;4.40;4.00;;;;;;;;;;4861932;29;20523;-70
2021/07/25 23:31:58;;;;;;;5.13;4.63;;;;;;;;;;4861804;29;20800;-69
2021/07/25 23:34:24;;;;;;;5.27;4.50;;;;;;;;;;4861959;29;20431;-69
2021/07/25 23:36:50;;;;;;;5.17;4.70;;;;;;;;;;4861691;29;20570;-70
2021/07/25 23:39:16;;;;;;;6.50;5.07;;;;;;;;;;4861001;29;20447;-70
2021/07/25 23:41:43;;;;;;;7.03;5.30;;;;;;;;;;4861796;29;20540;-70
2021/07/25 23:44:09;;;;;;;5.73;5.20;;;;;;;;;;4845357;29;20852;-68
2021/07/25 23:46:34;;;;;;;5.07;4.57;;;;;;;;;;4845066;29;20448;-71
2021/07/25 23:49:04;;;;;;;5.27;4.60;;;;;;;;;;4861438;29;21002;-70
2021/07/25 23:51:30;;;;;;;4.80;4.37;;;;;;;;;;4861673;29;20428;-70
2021/07/25 23:53:56;;;;;;;6.23;4.80;;;;;;;;;;4861196;29;20442;-70
2021/07/25 23:56:23;;;;;;;6.77;6.07;;;;;;;;;;4861318;29;20478;-70
2021/07/25 23:58:48;;;;;;;5.27;4.77;;;;;;;;;;4861601;29;20500;-69
